Sarasota, FL

2:49 PM EST on January 26, 2015 (GMT -0500)
Sarasota-bradenton | Change Station
CLOSE
Current Station
Airport
Location: Sarasota,
Elevation: 30 ft
Nearby Weather Stations

Elev 30 ft 27.40 °N, 82.56 °W | Updated 56 minutes ago

Overcast
Overcast
66 °F
Feels Like 66 °F
N
17
Wind Variable Wind from WNW

Today
High -- | Low -- °F
--% Chance of Precip.
Yesterday
High -- | Low -- °F
Precip. -- in
7:19 AM 6:06 PM
Waxing Crescent, 46% visible
Pressure 29.90 in
Visibility 10.0 miles
Clouds Few 3200 ft
Mostly Cloudy 4500 ft
Overcast 5500 ft
Dew Point 52 °F
Humidity 60%
Rainfall 0.08 in
Snow Depth Not available.
UV 2 out of 12
Pollen 6.00 out of 12
Air Quality Not available.
Flu Activity Not available.
METAR KSRQ 261853Z 30015KT 10SM FEW032 BKN045 OVC055 19/11 A2990 RMK AO2 SLP123 T01890111

More Conditions Fewer Conditions

Pressure 29.90 in
Visibility 10.0 miles
Clouds Few 3200 ft
Mostly Cloudy 4500 ft
Overcast 5500 ft
Dew Point 52 °F
Humidity 60%
Rainfall 0.08 in
Snow Depth Not available.
UV 2 out of 12
Pollen 6.00 out of 12
Air Quality Not available.
Flu Activity Not available.
METAR KSRQ 261853Z 30015KT 10SM FEW032 BKN045 OVC055 19/11 A2990 RMK AO2 SLP123 T01890111

More Conditions Fewer Conditions

10-Day Weather Forecast

Almanac

Astronomy

Jan. 26, 2015 Rise Set
Actual Time
Civil Twilight
Nautical Twilight
Astronomical Twilight
Moon
Length of Visible Light
Length of Day
Tomorrow will be .
, % of the Moon is Illuminated

Today's Extremes

State Highs State Lows

Community

WunderPhotos

Upload Photos

1,790,338 photos uploaded!

WunderBlogs® & News

Nearby

Air Quality

  Air Quality AQ Index Pollutant
Not available.

Snow Depth

Station Depth Elevation

Earthquake Activity

City Distance Mag. Time & Date
Minimum magnitude displayed is 2.5.

Coastal Water Temperatures

Place Temperature

Nearby Weather Stations